USGS_WC_eartags_output_files_2009-2011-Status

Data source: USGS Alaska Science Center, Polar Bear Research Program

39,247 rows sorted by DeployID

View and edit SQL

Link rowid DeployID ▼ Ptt Received LocationQuality Latitude Longitude Transmits BattVoltage TransmitCurrent Temperature
272                    
411                    
976                    
1224                    
1728                    
1897                    
2379                    
2898                    
6803                    
7344                    
7488                    
8178                    
8687                    
9198                    
9557                    
9998                    
10824                    
11271                    
17702                    
17945                    
21047                    
21194                    
24931                    
27345                    
31838                    
32760                    
33676                    
34479                    
35214                    
17946 11607 96875.0 8/15/2009 20:00 1 70.46800232 -149.8540039 384.0 3.04 0.24 15.55
17947 11607 96875.0 8/15/2009 20:01 1 70.46800232 -149.8540039 384.0 3.168 0.244 15.55
17948 11607 96875.0 8/15/2009 20:02 1 70.46800232 -149.8540039 384.0 3.2 0.244 15.63
17949 11607 96875.0 8/15/2009 20:03 1 70.46800232 -149.8540039 384.0 3.216 0.244 15.63
17950 11607 96875.0 8/15/2009 21:04       384.0 3.248 0.26 17.37
17951 11607 96875.0 8/15/2009 21:06       384.0 3.248 0.26 17.37
17952 11607 96875.0 8/15/2009 21:07       384.0 3.248 0.26 17.28
17953 11607 96875.0 8/15/2009 21:08       384.0 3.248 0.26 17.19
17954 11607 96875.0 8/15/2009 21:09       384.0 3.248 0.26 17.19
17955 11607 96875.0 8/15/2009 21:11       384.0 3.248 0.26 17.11
17956 11607 96875.0 8/15/2009 21:13       384.0 3.248 0.26 17.02
17957 11607 96875.0 8/15/2009 21:14       384.0 3.248 0.26 17.02
17958 11607 96875.0 8/15/2009 21:15       384.0 3.248 0.26 17.02
17959 11607 96875.0 8/15/2009 21:16 1 70.4980011 -149.88400269999997 384.0 3.248 0.26 17.19
17960 11607 96875.0 8/15/2009 21:17 3 70.4980011 -149.88800049999998 384.0 3.248 0.26 16.93
17961 11607 96875.0 8/15/2009 21:23 1 70.4980011 -149.88400269999997 384.0 3.248 0.26 16.93
17962 11607 96875.0 8/15/2009 21:24 3 70.4980011 -149.88800049999998 384.0 3.5039999999999996 0.26 16.85
17963 11607 96875.0 8/15/2009 21:26 1 70.4980011 -149.88400269999997 384.0 3.248 0.26 16.85
17964 11607 96875.0 8/15/2009 21:28 3 70.4980011 -149.88800049999998 384.0 3.248 0.26 16.85
17965 11607 96875.0 8/15/2009 21:34 3 70.4980011 -149.8860016 1408.0 3.248 0.26 17.02
17966 11607 96875.0 8/15/2009 21:38 3 70.4980011 -149.8860016 384.0 3.248 0.26 17.02
17967 11607 96875.0 8/15/2009 21:42 3 70.4980011 -149.8860016 384.0 3.248 0.26 16.93
17968 11607 96875.0 8/15/2009 21:43 3 70.4980011 -149.8860016 384.0 3.248 0.26 16.85
17969 11607 96875.0 8/15/2009 22:46 3 70.50099945 -149.88400269999997 640.0 3.264 0.26 17.9
17970 11607 96875.0 8/15/2009 22:47 3 70.50099945 -149.88400269999997 640.0 3.264 0.26 17.9
17971 11607 96875.0 8/15/2009 22:48 3 70.50099945 -149.88400269999997 640.0 3.264 0.26 17.99
17972 11607 96875.0 8/15/2009 22:49 3 70.50099945 -149.88400269999997 640.0 3.264 0.26 18.08
17973 11607 96875.0 8/15/2009 22:50 3 70.50099945 -149.88400269999997 640.0 3.264 0.26 18.16
17974 11607 96875.0 8/15/2009 22:52 3 70.50099945 -149.88400269999997 640.0 3.264 0.26 18.25
17975 11607 96875.0 8/15/2009 22:55 3 70.50099945 -149.88400269999997 640.0 3.264 0.26 18.34
17976 11607 96875.0 8/15/2009 22:57 3 70.4980011 -149.88900759999999 896.0 3.264 0.26 18.34
17977 11607 96875.0 8/15/2009 22:58 3 70.49900055 -149.8910065 640.0 3.264 0.26 18.34
17978 11607 96875.0 8/15/2009 23:08 3 70.4980011 -149.88900759999999 640.0 3.264 0.26 18.34
17979 11607 96875.0 8/15/2009 23:09 3 70.4980011 -149.88900759999999 640.0 3.264 0.26 18.34
17980 11607 96875.0 8/15/2009 23:16 3 70.5 -149.88900759999999 640.0 3.264 0.26 18.52
17981 11607 96875.0 8/15/2009 23:17 2 70.49700165 -149.88800049999998 640.0 3.264 0.26 18.52
17982 11607 96875.0 8/15/2009 23:20 2 70.49700165 -149.88800049999998 640.0 3.264 0.26 18.61
17983 11607 96875.0 8/15/2009 23:21 3 70.5 -149.88900759999999 640.0 3.264 0.26 18.7
17984 11607 96875.0 8/15/2009 23:23 3 70.5 -149.88900759999999 640.0 3.264 0.26 18.79
17985 11607 96875.0 8/16/2009 20:57       640.0 3.264 0.248 17.55
17986 11607 96875.0 8/16/2009 20:59       640.0 3.264 0.248 17.19
17987 11607 96875.0 8/16/2009 21:00       640.0 3.248 0.26 17.19
17988 11607 96875.0 8/16/2009 21:01       640.0 3.248 0.26 17.19
17989 11607 96875.0 8/16/2009 21:04       640.0 3.248 0.268 17.28
17990 11607 96875.0 8/16/2009 21:05       640.0 3.248 0.268 17.28
17991 11607 96875.0 8/16/2009 21:07       640.0 3.248 0.272 17.37
17992 11607 96875.0 8/16/2009 21:08 0 70.64299774 -149.0639954 640.0 3.248 0.272 17.37
17993 11607 96875.0 8/16/2009 21:10 0 70.64299774 -149.0639954 640.0 3.248 0.272 17.46
17994 11607 96875.0 8/16/2009 21:11 0 70.64299774 -149.0639954 640.0 3.248 0.268 17.55
17995 11607 96875.0 8/16/2009 21:16 0 70.70400238 -149.4429932 640.0 3.248 0.272 17.55
17996 11607 96875.0 8/16/2009 21:18 0 70.64299774 -149.0639954 640.0 3.248 0.272 17.55
17997 11607 96875.0 8/16/2009 21:25 0 70.64800262 -147.9750061 640.0 3.248 0.268 17.55
17998 11607 96875.0 8/16/2009 21:26 0 70.64800262 -147.9750061 640.0 3.248 0.272 17.55
17999 11607 96875.0 8/16/2009 21:27 0 70.64800262 -147.9750061 640.0 3.248 0.272 17.63
18000 11607 96875.0 8/16/2009 21:29 0 70.64800262 -147.9750061 640.0 3.248 0.268 17.72
18001 11607 96875.0 8/16/2009 22:22 0 70.28800201 -146.0149994 896.0 3.264 0.276 19.33
18002 11607 96875.0 8/16/2009 22:23 0 70.28800201 -146.0149994 896.0 3.264 0.272 19.24
18003 11607 96875.0 8/16/2009 22:24 0 70.28800201 -146.0149994 896.0 3.264 0.276 19.24
18004 11607 96875.0 8/16/2009 22:25 0 70.28800201 -146.0149994 896.0 3.264 0.268 19.24
18005 11607 96875.0 8/16/2009 22:26 0 70.28800201 -146.0149994 896.0 3.264 0.272 19.24
18006 11607 96875.0 8/16/2009 22:27 0 70.28800201 -146.0149994 896.0 3.264 0.268 19.33
18007 11607 96875.0 8/16/2009 22:28 0 70.28800201 -146.0149994 896.0 3.264 0.268 19.24
18008 11607 96875.0 8/16/2009 22:32 0 70.28800201 -146.0149994 896.0 3.264 0.268 19.33
18009 11607 96875.0 8/16/2009 22:33 0 70.28800201 -146.0149994 896.0 3.264 0.272 19.33
18010 11607 96875.0 8/16/2009 22:35 0 70.28800201 -146.0149994 896.0 3.264 0.272 19.42
18011 11607 96875.0 8/16/2009 22:37 0 70.05599976 -145.5890045 640.0 3.264 0.272 19.51
18012 11607 96875.0 8/16/2009 22:38 0 70.17500305 -145.0200043 896.0 3.264 0.272 19.51
18013 11607 96875.0 8/16/2009 22:39 0 70.05599976 -145.5890045 896.0 3.264 0.268 19.51
18014 11607 96875.0 8/16/2009 22:40 0 70.05599976 -145.5890045 896.0 3.264 0.272 19.6
18015 11607 96875.0 8/16/2009 22:42 0 70.05599976 -145.5890045 896.0 3.28 0.268 19.6
18016 11607 96875.0 8/16/2009 22:43 0 70.05599976 -145.5890045 33664.0 3.28 0.268 19.69

Next page

Advanced export

JSON shape: default, array, newline-delimited

CSV options:

CREATE TABLE "USGS_WC_eartags_output_files_2009-2011-Status" (
"DeployID" TEXT,
  "Ptt" REAL,
  "Received" TEXT,
  "LocationQuality" TEXT,
  "Latitude" REAL,
  "Longitude" REAL,
  "Transmits" REAL,
  "BattVoltage" REAL,
  "TransmitCurrent" REAL,
  "Temperature" REAL
);
CREATE INDEX "ix_USGS_WC_eartags_output_files_2009-2011-Status_DeployID"ON "USGS_WC_eartags_output_files_2009-2011-Status" ("DeployID");
Powered by Datasette · Query took 1192.477ms · Data source: USGS Alaska Science Center, Polar Bear Research Program